<?xml version="1.0" encoding="UTF-8" ?>
<gpx version="1.1" xmlns:xsi="http://www.w3.org/2001/XMLSchema-instance" 
    xmlns="http://www.topografix.com/GPX/1/1" 
    xsi:schemaLocation="http://www.topografix.com/GPX/1/1 http://www.topografix.com/GPX/1/1/gpx.xsd" 
    creator="Openrunner - https://www.openrunner.com" >	<trk>
						<name>Circuit des Ponçonnières_Saint Maurice_Chabanières-21729515</name>
						<trkseg>
					<trkpt lat="45.582260" lon="4.630540">
						<ele>477</ele>
						<time>2025-06-23T10:39:33Z</time>
					</trkpt>
					<trkpt lat="45.582190" lon="4.630810">
						<ele>475</ele>
						<time>2025-06-23T10:40:00Z</time>
					</trkpt>
					<trkpt lat="45.581980" lon="4.631310">
						<ele>470</ele>
						<time>2025-06-23T10:40:54Z</time>
					</trkpt>
					<trkpt lat="45.582010" lon="4.631320">
						<ele>470</ele>
						<time>2025-06-23T10:40:58Z</time>
					</trkpt>
					<trkpt lat="45.581980" lon="4.631310">
						<ele>470</ele>
						<time>2025-06-23T10:41:03Z</time>
					</trkpt>
					<trkpt lat="45.581860" lon="4.631260">
						<ele>469</ele>
						<time>2025-06-23T10:41:19Z</time>
					</trkpt>
					<trkpt lat="45.580530" lon="4.630590">
						<ele>461</ele>
						<time>2025-06-23T10:44:27Z</time>
					</trkpt>
					<trkpt lat="45.580380" lon="4.630510">
						<ele>461</ele>
						<time>2025-06-23T10:44:49Z</time>
					</trkpt>
					<trkpt lat="45.580250" lon="4.630480">
						<ele>460</ele>
						<time>2025-06-23T10:45:06Z</time>
					</trkpt>
					<trkpt lat="45.580230" lon="4.630440">
						<ele>460</ele>
						<time>2025-06-23T10:45:11Z</time>
					</trkpt>
					<trkpt lat="45.580030" lon="4.630310">
						<ele>460</ele>
						<time>2025-06-23T10:45:40Z</time>
					</trkpt>
					<trkpt lat="45.579410" lon="4.630120">
						<ele>458</ele>
						<time>2025-06-23T10:47:05Z</time>
					</trkpt>
					<trkpt lat="45.579270" lon="4.630030">
						<ele>457</ele>
						<time>2025-06-23T10:47:25Z</time>
					</trkpt>
					<trkpt lat="45.579000" lon="4.629640">
						<ele>458</ele>
						<time>2025-06-23T10:48:17Z</time>
					</trkpt>
					<trkpt lat="45.578700" lon="4.629140">
						<ele>459</ele>
						<time>2025-06-23T10:49:18Z</time>
					</trkpt>
					<trkpt lat="45.578640" lon="4.629000">
						<ele>459</ele>
						<time>2025-06-23T10:49:33Z</time>
					</trkpt>
					<trkpt lat="45.578480" lon="4.628520">
						<ele>460</ele>
						<time>2025-06-23T10:50:23Z</time>
					</trkpt>
					<trkpt lat="45.578290" lon="4.627840">
						<ele>459</ele>
						<time>2025-06-23T10:51:32Z</time>
					</trkpt>
					<trkpt lat="45.578270" lon="4.627780">
						<ele>459</ele>
						<time>2025-06-23T10:51:38Z</time>
					</trkpt>
					<trkpt lat="45.578090" lon="4.627270">
						<ele>459</ele>
						<time>2025-06-23T10:52:31Z</time>
					</trkpt>
					<trkpt lat="45.577970" lon="4.627010">
						<ele>460</ele>
						<time>2025-06-23T10:53:00Z</time>
					</trkpt>
					<trkpt lat="45.577770" lon="4.626400">
						<ele>461</ele>
						<time>2025-06-23T10:54:03Z</time>
					</trkpt>
					<trkpt lat="45.577690" lon="4.626150">
						<ele>461</ele>
						<time>2025-06-23T10:54:29Z</time>
					</trkpt>
					<trkpt lat="45.577630" lon="4.625890">
						<ele>461</ele>
						<time>2025-06-23T10:54:54Z</time>
					</trkpt>
					<trkpt lat="45.577580" lon="4.625080">
						<ele>462</ele>
						<time>2025-06-23T10:56:10Z</time>
					</trkpt>
					<trkpt lat="45.577580" lon="4.624920">
						<ele>461</ele>
						<time>2025-06-23T10:56:25Z</time>
					</trkpt>
					<trkpt lat="45.577570" lon="4.624570">
						<ele>459</ele>
						<time>2025-06-23T10:56:58Z</time>
					</trkpt>
					<trkpt lat="45.577610" lon="4.624340">
						<ele>459</ele>
						<time>2025-06-23T10:57:20Z</time>
					</trkpt>
					<trkpt lat="45.577660" lon="4.624190">
						<ele>459</ele>
						<time>2025-06-23T10:57:36Z</time>
					</trkpt>
					<trkpt lat="45.577790" lon="4.623870">
						<ele>458</ele>
						<time>2025-06-23T10:58:10Z</time>
					</trkpt>
					<trkpt lat="45.577910" lon="4.623650">
						<ele>457</ele>
						<time>2025-06-23T10:58:36Z</time>
					</trkpt>
					<trkpt lat="45.578090" lon="4.623400">
						<ele>456</ele>
						<time>2025-06-23T10:59:10Z</time>
					</trkpt>
					<trkpt lat="45.578150" lon="4.623400">
						<ele>457</ele>
						<time>2025-06-23T10:59:18Z</time>
					</trkpt>
					<trkpt lat="45.578090" lon="4.623400">
						<ele>456</ele>
						<time>2025-06-23T10:59:26Z</time>
					</trkpt>
					<trkpt lat="45.578020" lon="4.623420">
						<ele>456</ele>
						<time>2025-06-23T10:59:35Z</time>
					</trkpt>
					<trkpt lat="45.577940" lon="4.623390">
						<ele>454</ele>
						<time>2025-06-23T10:59:46Z</time>
					</trkpt>
					<trkpt lat="45.577840" lon="4.623390">
						<ele>453</ele>
						<time>2025-06-23T11:00:00Z</time>
					</trkpt>
					<trkpt lat="45.577620" lon="4.623470">
						<ele>452</ele>
						<time>2025-06-23T11:00:30Z</time>
					</trkpt>
					<trkpt lat="45.577470" lon="4.623490">
						<ele>450</ele>
						<time>2025-06-23T11:00:50Z</time>
					</trkpt>
					<trkpt lat="45.577390" lon="4.623520">
						<ele>449</ele>
						<time>2025-06-23T11:01:01Z</time>
					</trkpt>
					<trkpt lat="45.577230" lon="4.623610">
						<ele>446</ele>
						<time>2025-06-23T11:01:24Z</time>
					</trkpt>
					<trkpt lat="45.577110" lon="4.623620">
						<ele>444</ele>
						<time>2025-06-23T11:01:40Z</time>
					</trkpt>
					<trkpt lat="45.577030" lon="4.623660">
						<ele>443</ele>
						<time>2025-06-23T11:01:51Z</time>
					</trkpt>
					<trkpt lat="45.576970" lon="4.623720">
						<ele>442</ele>
						<time>2025-06-23T11:02:01Z</time>
					</trkpt>
					<trkpt lat="45.576910" lon="4.623880">
						<ele>442</ele>
						<time>2025-06-23T11:02:18Z</time>
					</trkpt>
					<trkpt lat="45.576870" lon="4.624050">
						<ele>442</ele>
						<time>2025-06-23T11:02:35Z</time>
					</trkpt>
					<trkpt lat="45.576790" lon="4.624210">
						<ele>441</ele>
						<time>2025-06-23T11:02:53Z</time>
					</trkpt>
					<trkpt lat="45.576700" lon="4.624360">
						<ele>439</ele>
						<time>2025-06-23T11:03:12Z</time>
					</trkpt>
					<trkpt lat="45.576620" lon="4.624370">
						<ele>438</ele>
						<time>2025-06-23T11:03:22Z</time>
					</trkpt>
					<trkpt lat="45.576160" lon="4.624390">
						<ele>431</ele>
						<time>2025-06-23T11:04:24Z</time>
					</trkpt>
					<trkpt lat="45.576130" lon="4.624410">
						<ele>430</ele>
						<time>2025-06-23T11:04:28Z</time>
					</trkpt>
					<trkpt lat="45.576090" lon="4.624480">
						<ele>430</ele>
						<time>2025-06-23T11:04:37Z</time>
					</trkpt>
					<trkpt lat="45.576060" lon="4.624650">
						<ele>429</ele>
						<time>2025-06-23T11:04:53Z</time>
					</trkpt>
					<trkpt lat="45.576020" lon="4.624930">
						<ele>428</ele>
						<time>2025-06-23T11:05:20Z</time>
					</trkpt>
					<trkpt lat="45.575980" lon="4.625140">
						<ele>427</ele>
						<time>2025-06-23T11:05:40Z</time>
					</trkpt>
					<trkpt lat="45.575940" lon="4.625280">
						<ele>426</ele>
						<time>2025-06-23T11:05:54Z</time>
					</trkpt>
					<trkpt lat="45.575850" lon="4.625500">
						<ele>424</ele>
						<time>2025-06-23T11:06:18Z</time>
					</trkpt>
					<trkpt lat="45.575780" lon="4.625630">
						<ele>422</ele>
						<time>2025-06-23T11:06:33Z</time>
					</trkpt>
					<trkpt lat="45.575720" lon="4.625760">
						<ele>421</ele>
						<time>2025-06-23T11:06:48Z</time>
					</trkpt>
					<trkpt lat="45.575690" lon="4.625800">
						<ele>420</ele>
						<time>2025-06-23T11:06:53Z</time>
					</trkpt>
					<trkpt lat="45.575650" lon="4.625960">
						<ele>419</ele>
						<time>2025-06-23T11:07:09Z</time>
					</trkpt>
					<trkpt lat="45.575460" lon="4.626310">
						<ele>416</ele>
						<time>2025-06-23T11:07:51Z</time>
					</trkpt>
					<trkpt lat="45.574910" lon="4.627100">
						<ele>407</ele>
						<time>2025-06-23T11:09:35Z</time>
					</trkpt>
					<trkpt lat="45.574740" lon="4.627330">
						<ele>405</ele>
						<time>2025-06-23T11:10:06Z</time>
					</trkpt>
					<trkpt lat="45.574340" lon="4.627810">
						<ele>400</ele>
						<time>2025-06-23T11:11:16Z</time>
					</trkpt>
					<trkpt lat="45.574240" lon="4.628070">
						<ele>399</ele>
						<time>2025-06-23T11:11:43Z</time>
					</trkpt>
					<trkpt lat="45.574220" lon="4.628290">
						<ele>399</ele>
						<time>2025-06-23T11:12:04Z</time>
					</trkpt>
					<trkpt lat="45.574230" lon="4.628470">
						<ele>399</ele>
						<time>2025-06-23T11:12:21Z</time>
					</trkpt>
					<trkpt lat="45.574240" lon="4.628630">
						<ele>399</ele>
						<time>2025-06-23T11:12:36Z</time>
					</trkpt>
					<trkpt lat="45.574230" lon="4.628790">
						<ele>399</ele>
						<time>2025-06-23T11:12:51Z</time>
					</trkpt>
					<trkpt lat="45.574160" lon="4.628980">
						<ele>398</ele>
						<time>2025-06-23T11:13:11Z</time>
					</trkpt>
					<trkpt lat="45.574020" lon="4.629110">
						<ele>397</ele>
						<time>2025-06-23T11:13:33Z</time>
					</trkpt>
					<trkpt lat="45.573790" lon="4.629310">
						<ele>396</ele>
						<time>2025-06-23T11:14:09Z</time>
					</trkpt>
					<trkpt lat="45.573580" lon="4.629550">
						<ele>396</ele>
						<time>2025-06-23T11:14:45Z</time>
					</trkpt>
					<trkpt lat="45.573380" lon="4.629800">
						<ele>396</ele>
						<time>2025-06-23T11:15:21Z</time>
					</trkpt>
					<trkpt lat="45.573130" lon="4.630090">
						<ele>396</ele>
						<time>2025-06-23T11:16:04Z</time>
					</trkpt>
					<trkpt lat="45.572820" lon="4.630540">
						<ele>395</ele>
						<time>2025-06-23T11:17:03Z</time>
					</trkpt>
					<trkpt lat="45.572630" lon="4.630860">
						<ele>394</ele>
						<time>2025-06-23T11:17:42Z</time>
					</trkpt>
					<trkpt lat="45.572580" lon="4.630930">
						<ele>394</ele>
						<time>2025-06-23T11:17:51Z</time>
					</trkpt>
					<trkpt lat="45.572420" lon="4.630750">
						<ele>392</ele>
						<time>2025-06-23T11:18:18Z</time>
					</trkpt>
					<trkpt lat="45.572160" lon="4.630510">
						<ele>390</ele>
						<time>2025-06-23T11:19:00Z</time>
					</trkpt>
					<trkpt lat="45.571850" lon="4.630280">
						<ele>388</ele>
						<time>2025-06-23T11:19:46Z</time>
					</trkpt>
					<trkpt lat="45.570860" lon="4.629600">
						<ele>381</ele>
						<time>2025-06-23T11:22:13Z</time>
					</trkpt>
					<trkpt lat="45.570520" lon="4.629410">
						<ele>378</ele>
						<time>2025-06-23T11:23:01Z</time>
					</trkpt>
					<trkpt lat="45.570510" lon="4.629330">
						<ele>378</ele>
						<time>2025-06-23T11:23:09Z</time>
					</trkpt>
					<trkpt lat="45.570520" lon="4.629290">
						<ele>378</ele>
						<time>2025-06-23T11:23:13Z</time>
					</trkpt>
					<trkpt lat="45.570570" lon="4.629120">
						<ele>378</ele>
						<time>2025-06-23T11:23:30Z</time>
					</trkpt>
					<trkpt lat="45.570560" lon="4.629030">
						<ele>377</ele>
						<time>2025-06-23T11:23:39Z</time>
					</trkpt>
					<trkpt lat="45.570540" lon="4.628970">
						<ele>377</ele>
						<time>2025-06-23T11:23:45Z</time>
					</trkpt>
					<trkpt lat="45.570020" lon="4.628070">
						<ele>370</ele>
						<time>2025-06-23T11:25:34Z</time>
					</trkpt>
					<trkpt lat="45.569450" lon="4.627070">
						<ele>359</ele>
						<time>2025-06-23T11:27:34Z</time>
					</trkpt>
					<trkpt lat="45.569340" lon="4.627040">
						<ele>358</ele>
						<time>2025-06-23T11:27:49Z</time>
					</trkpt>
					<trkpt lat="45.569100" lon="4.627020">
						<ele>355</ele>
						<time>2025-06-23T11:28:21Z</time>
					</trkpt>
					<trkpt lat="45.569040" lon="4.627020">
						<ele>354</ele>
						<time>2025-06-23T11:28:29Z</time>
					</trkpt>
					<trkpt lat="45.568970" lon="4.627010">
						<ele>352</ele>
						<time>2025-06-23T11:28:39Z</time>
					</trkpt>
					<trkpt lat="45.568920" lon="4.627010">
						<ele>351</ele>
						<time>2025-06-23T11:28:46Z</time>
					</trkpt>
					<trkpt lat="45.568690" lon="4.626980">
						<ele>347</ele>
						<time>2025-06-23T11:29:16Z</time>
					</trkpt>
					<trkpt lat="45.568580" lon="4.626990">
						<ele>345</ele>
						<time>2025-06-23T11:29:31Z</time>
					</trkpt>
					<trkpt lat="45.568480" lon="4.627030">
						<ele>343</ele>
						<time>2025-06-23T11:29:45Z</time>
					</trkpt>
					<trkpt lat="45.568410" lon="4.627120">
						<ele>343</ele>
						<time>2025-06-23T11:29:57Z</time>
					</trkpt>
					<trkpt lat="45.568370" lon="4.627200">
						<ele>344</ele>
						<time>2025-06-23T11:30:07Z</time>
					</trkpt>
					<trkpt lat="45.568360" lon="4.627270">
						<ele>344</ele>
						<time>2025-06-23T11:30:13Z</time>
					</trkpt>
					<trkpt lat="45.568300" lon="4.627250">
						<ele>343</ele>
						<time>2025-06-23T11:30:22Z</time>
					</trkpt>
					<trkpt lat="45.568270" lon="4.627220">
						<ele>342</ele>
						<time>2025-06-23T11:30:26Z</time>
					</trkpt>
					<trkpt lat="45.568250" lon="4.627020">
						<ele>339</ele>
						<time>2025-06-23T11:30:45Z</time>
					</trkpt>
					<trkpt lat="45.568230" lon="4.627000">
						<ele>338</ele>
						<time>2025-06-23T11:30:49Z</time>
					</trkpt>
					<trkpt lat="45.568130" lon="4.626970">
						<ele>335</ele>
						<time>2025-06-23T11:31:02Z</time>
					</trkpt>
					<trkpt lat="45.568080" lon="4.627000">
						<ele>334</ele>
						<time>2025-06-23T11:31:09Z</time>
					</trkpt>
					<trkpt lat="45.568060" lon="4.627060">
						<ele>335</ele>
						<time>2025-06-23T11:31:16Z</time>
					</trkpt>
					<trkpt lat="45.568030" lon="4.627270">
						<ele>337</ele>
						<time>2025-06-23T11:31:36Z</time>
					</trkpt>
					<trkpt lat="45.568010" lon="4.627310">
						<ele>337</ele>
						<time>2025-06-23T11:31:40Z</time>
					</trkpt>
					<trkpt lat="45.567970" lon="4.627310">
						<ele>336</ele>
						<time>2025-06-23T11:31:46Z</time>
					</trkpt>
					<trkpt lat="45.567930" lon="4.627240">
						<ele>334</ele>
						<time>2025-06-23T11:31:54Z</time>
					</trkpt>
					<trkpt lat="45.567880" lon="4.627160">
						<ele>332</ele>
						<time>2025-06-23T11:32:04Z</time>
					</trkpt>
					<trkpt lat="45.567770" lon="4.626940">
						<ele>326</ele>
						<time>2025-06-23T11:32:29Z</time>
					</trkpt>
					<trkpt lat="45.567760" lon="4.626890">
						<ele>325</ele>
						<time>2025-06-23T11:32:34Z</time>
					</trkpt>
					<trkpt lat="45.567770" lon="4.626840">
						<ele>325</ele>
						<time>2025-06-23T11:32:39Z</time>
					</trkpt>
					<trkpt lat="45.567800" lon="4.626800">
						<ele>325</ele>
						<time>2025-06-23T11:32:45Z</time>
					</trkpt>
					<trkpt lat="45.567820" lon="4.626750">
						<ele>324</ele>
						<time>2025-06-23T11:32:50Z</time>
					</trkpt>
					<trkpt lat="45.567810" lon="4.626730">
						<ele>324</ele>
						<time>2025-06-23T11:32:52Z</time>
					</trkpt>
					<trkpt lat="45.567770" lon="4.626710">
						<ele>322</ele>
						<time>2025-06-23T11:32:58Z</time>
					</trkpt>
					<trkpt lat="45.567680" lon="4.626840">
						<ele>322</ele>
						<time>2025-06-23T11:33:15Z</time>
					</trkpt>
					<trkpt lat="45.567640" lon="4.626910">
						<ele>322</ele>
						<time>2025-06-23T11:33:23Z</time>
					</trkpt>
					<trkpt lat="45.567630" lon="4.626960">
						<ele>323</ele>
						<time>2025-06-23T11:33:28Z</time>
					</trkpt>
					<trkpt lat="45.567590" lon="4.626950">
						<ele>322</ele>
						<time>2025-06-23T11:33:34Z</time>
					</trkpt>
					<trkpt lat="45.567560" lon="4.626920">
						<ele>321</ele>
						<time>2025-06-23T11:33:39Z</time>
					</trkpt>
					<trkpt lat="45.567570" lon="4.626870">
						<ele>320</ele>
						<time>2025-06-23T11:33:43Z</time>
					</trkpt>
					<trkpt lat="45.567620" lon="4.626790">
						<ele>320</ele>
						<time>2025-06-23T11:33:53Z</time>
					</trkpt>
					<trkpt lat="45.567630" lon="4.626720">
						<ele>319</ele>
						<time>2025-06-23T11:34:00Z</time>
					</trkpt>
					<trkpt lat="45.567630" lon="4.626660">
						<ele>318</ele>
						<time>2025-06-23T11:34:06Z</time>
					</trkpt>
					<trkpt lat="45.567600" lon="4.626620">
						<ele>317</ele>
						<time>2025-06-23T11:34:11Z</time>
					</trkpt>
					<trkpt lat="45.567560" lon="4.626650">
						<ele>317</ele>
						<time>2025-06-23T11:34:17Z</time>
					</trkpt>
					<trkpt lat="45.567560" lon="4.626730">
						<ele>318</ele>
						<time>2025-06-23T11:34:25Z</time>
					</trkpt>
					<trkpt lat="45.567540" lon="4.626790">
						<ele>318</ele>
						<time>2025-06-23T11:34:31Z</time>
					</trkpt>
					<trkpt lat="45.567510" lon="4.626790">
						<ele>317</ele>
						<time>2025-06-23T11:34:35Z</time>
					</trkpt>
					<trkpt lat="45.567520" lon="4.626750">
						<ele>317</ele>
						<time>2025-06-23T11:34:39Z</time>
					</trkpt>
					<trkpt lat="45.567490" lon="4.626700">
						<ele>316</ele>
						<time>2025-06-23T11:34:45Z</time>
					</trkpt>
					<trkpt lat="45.567470" lon="4.626670">
						<ele>315</ele>
						<time>2025-06-23T11:34:49Z</time>
					</trkpt>
					<trkpt lat="45.567470" lon="4.626600">
						<ele>315</ele>
						<time>2025-06-23T11:34:55Z</time>
					</trkpt>
					<trkpt lat="45.567300" lon="4.626850">
						<ele>317</ele>
						<time>2025-06-23T11:35:28Z</time>
					</trkpt>
					<trkpt lat="45.567140" lon="4.627160">
						<ele>319</ele>
						<time>2025-06-23T11:36:04Z</time>
					</trkpt>
					<trkpt lat="45.567060" lon="4.627430">
						<ele>321</ele>
						<time>2025-06-23T11:36:31Z</time>
					</trkpt>
					<trkpt lat="45.566940" lon="4.627610">
						<ele>322</ele>
						<time>2025-06-23T11:36:55Z</time>
					</trkpt>
					<trkpt lat="45.566810" lon="4.627780">
						<ele>325</ele>
						<time>2025-06-23T11:37:18Z</time>
					</trkpt>
					<trkpt lat="45.566660" lon="4.627960">
						<ele>327</ele>
						<time>2025-06-23T11:37:44Z</time>
					</trkpt>
					<trkpt lat="45.566530" lon="4.628060">
						<ele>329</ele>
						<time>2025-06-23T11:38:04Z</time>
					</trkpt>
					<trkpt lat="45.566410" lon="4.628100">
						<ele>329</ele>
						<time>2025-06-23T11:38:20Z</time>
					</trkpt>
					<trkpt lat="45.566280" lon="4.628100">
						<ele>328</ele>
						<time>2025-06-23T11:38:38Z</time>
					</trkpt>
					<trkpt lat="45.566190" lon="4.628180">
						<ele>330</ele>
						<time>2025-06-23T11:38:52Z</time>
					</trkpt>
					<trkpt lat="45.566030" lon="4.628350">
						<ele>333</ele>
						<time>2025-06-23T11:39:19Z</time>
					</trkpt>
					<trkpt lat="45.565830" lon="4.628510">
						<ele>334</ele>
						<time>2025-06-23T11:39:49Z</time>
					</trkpt>
					<trkpt lat="45.565660" lon="4.628630">
						<ele>333</ele>
						<time>2025-06-23T11:40:14Z</time>
					</trkpt>
					<trkpt lat="45.565650" lon="4.628640">
						<ele>333</ele>
						<time>2025-06-23T11:40:16Z</time>
					</trkpt>
					<trkpt lat="45.565690" lon="4.628780">
						<ele>336</ele>
						<time>2025-06-23T11:40:30Z</time>
					</trkpt>
					<trkpt lat="45.566090" lon="4.629140">
						<ele>347</ele>
						<time>2025-06-23T11:41:33Z</time>
					</trkpt>
					<trkpt lat="45.566410" lon="4.629510">
						<ele>354</ele>
						<time>2025-06-23T11:42:28Z</time>
					</trkpt>
					<trkpt lat="45.566570" lon="4.629750">
						<ele>357</ele>
						<time>2025-06-23T11:42:59Z</time>
					</trkpt>
					<trkpt lat="45.566760" lon="4.630180">
						<ele>361</ele>
						<time>2025-06-23T11:43:47Z</time>
					</trkpt>
					<trkpt lat="45.566890" lon="4.630330">
						<ele>363</ele>
						<time>2025-06-23T11:44:09Z</time>
					</trkpt>
					<trkpt lat="45.567020" lon="4.630570">
						<ele>365</ele>
						<time>2025-06-23T11:44:37Z</time>
					</trkpt>
					<trkpt lat="45.567950" lon="4.633790">
						<ele>375</ele>
						<time>2025-06-23T11:50:03Z</time>
					</trkpt>
					<trkpt lat="45.568020" lon="4.633760">
						<ele>376</ele>
						<time>2025-06-23T11:50:12Z</time>
					</trkpt>
					<trkpt lat="45.567950" lon="4.633790">
						<ele>375</ele>
						<time>2025-06-23T11:50:22Z</time>
					</trkpt>
					<trkpt lat="45.568110" lon="4.634400">
						<ele>376</ele>
						<time>2025-06-23T11:51:23Z</time>
					</trkpt>
					<trkpt lat="45.568330" lon="4.634950">
						<ele>376</ele>
						<time>2025-06-23T11:52:22Z</time>
					</trkpt>
					<trkpt lat="45.568710" lon="4.635660">
						<ele>374</ele>
						<time>2025-06-23T11:53:46Z</time>
					</trkpt>
					<trkpt lat="45.569000" lon="4.636310">
						<ele>374</ele>
						<time>2025-06-23T11:54:58Z</time>
					</trkpt>
					<trkpt lat="45.569330" lon="4.637250">
						<ele>373</ele>
						<time>2025-06-23T11:56:36Z</time>
					</trkpt>
					<trkpt lat="45.569570" lon="4.638210">
						<ele>373</ele>
						<time>2025-06-23T11:58:11Z</time>
					</trkpt>
					<trkpt lat="45.569940" lon="4.638900">
						<ele>376</ele>
						<time>2025-06-23T11:59:32Z</time>
					</trkpt>
					<trkpt lat="45.571070" lon="4.640740">
						<ele>384</ele>
						<time>2025-06-23T12:03:21Z</time>
					</trkpt>
					<trkpt lat="45.571230" lon="4.641140">
						<ele>385</ele>
						<time>2025-06-23T12:04:04Z</time>
					</trkpt>
					<trkpt lat="45.571640" lon="4.642460">
						<ele>386</ele>
						<time>2025-06-23T12:06:19Z</time>
					</trkpt>
					<trkpt lat="45.571680" lon="4.642420">
						<ele>386</ele>
						<time>2025-06-23T12:06:26Z</time>
					</trkpt>
					<trkpt lat="45.571790" lon="4.642330">
						<ele>387</ele>
						<time>2025-06-23T12:06:42Z</time>
					</trkpt>
					<trkpt lat="45.572200" lon="4.641880">
						<ele>389</ele>
						<time>2025-06-23T12:07:51Z</time>
					</trkpt>
					<trkpt lat="45.572330" lon="4.641780">
						<ele>390</ele>
						<time>2025-06-23T12:08:11Z</time>
					</trkpt>
					<trkpt lat="45.572460" lon="4.641730">
						<ele>391</ele>
						<time>2025-06-23T12:08:29Z</time>
					</trkpt>
					<trkpt lat="45.572700" lon="4.641680">
						<ele>392</ele>
						<time>2025-06-23T12:09:01Z</time>
					</trkpt>
					<trkpt lat="45.572860" lon="4.641620">
						<ele>392</ele>
						<time>2025-06-23T12:09:24Z</time>
					</trkpt>
					<trkpt lat="45.573630" lon="4.641320">
						<ele>395</ele>
						<time>2025-06-23T12:11:10Z</time>
					</trkpt>
					<trkpt lat="45.574320" lon="4.641030">
						<ele>396</ele>
						<time>2025-06-23T12:12:46Z</time>
					</trkpt>
					<trkpt lat="45.575230" lon="4.640610">
						<ele>399</ele>
						<time>2025-06-23T12:14:54Z</time>
					</trkpt>
					<trkpt lat="45.575350" lon="4.640570">
						<ele>399</ele>
						<time>2025-06-23T12:15:10Z</time>
					</trkpt>
					<trkpt lat="45.575430" lon="4.640560">
						<ele>399</ele>
						<time>2025-06-23T12:15:21Z</time>
					</trkpt>
					<trkpt lat="45.575470" lon="4.640550">
						<ele>400</ele>
						<time>2025-06-23T12:15:26Z</time>
					</trkpt>
					<trkpt lat="45.576350" lon="4.639510">
						<ele>404</ele>
						<time>2025-06-23T12:17:59Z</time>
					</trkpt>
					<trkpt lat="45.576320" lon="4.639450">
						<ele>404</ele>
						<time>2025-06-23T12:18:06Z</time>
					</trkpt>
					<trkpt lat="45.576350" lon="4.639510">
						<ele>404</ele>
						<time>2025-06-23T12:18:12Z</time>
					</trkpt>
					<trkpt lat="45.576670" lon="4.640810">
						<ele>401</ele>
						<time>2025-06-23T12:20:21Z</time>
					</trkpt>
					<trkpt lat="45.578230" lon="4.640430">
						<ele>403</ele>
						<time>2025-06-23T12:23:52Z</time>
					</trkpt>
					<trkpt lat="45.579600" lon="4.640360">
						<ele>401</ele>
						<time>2025-06-23T12:26:55Z</time>
					</trkpt>
					<trkpt lat="45.579630" lon="4.639150">
						<ele>408</ele>
						<time>2025-06-23T12:28:48Z</time>
					</trkpt>
					<trkpt lat="45.579720" lon="4.638170">
						<ele>415</ele>
						<time>2025-06-23T12:30:21Z</time>
					</trkpt>
					<trkpt lat="45.579760" lon="4.638180">
						<ele>414</ele>
						<time>2025-06-23T12:30:26Z</time>
					</trkpt>
					<trkpt lat="45.580330" lon="4.638250">
						<ele>414</ele>
						<time>2025-06-23T12:31:42Z</time>
					</trkpt>
					<trkpt lat="45.580670" lon="4.638290">
						<ele>413</ele>
						<time>2025-06-23T12:32:28Z</time>
					</trkpt>
					<trkpt lat="45.581270" lon="4.638660">
						<ele>411</ele>
						<time>2025-06-23T12:33:55Z</time>
					</trkpt>
					<trkpt lat="45.581360" lon="4.638700">
						<ele>410</ele>
						<time>2025-06-23T12:34:08Z</time>
					</trkpt>
					<trkpt lat="45.581660" lon="4.638830">
						<ele>409</ele>
						<time>2025-06-23T12:34:50Z</time>
					</trkpt>
					<trkpt lat="45.582010" lon="4.638860">
						<ele>409</ele>
						<time>2025-06-23T12:35:36Z</time>
					</trkpt>
					<trkpt lat="45.582730" lon="4.638860">
						<ele>410</ele>
						<time>2025-06-23T12:37:12Z</time>
					</trkpt>
					<trkpt lat="45.583140" lon="4.638890">
						<ele>412</ele>
						<time>2025-06-23T12:38:07Z</time>
					</trkpt>
					<trkpt lat="45.583130" lon="4.638930">
						<ele>412</ele>
						<time>2025-06-23T12:38:11Z</time>
					</trkpt>
					<trkpt lat="45.583140" lon="4.638890">
						<ele>412</ele>
						<time>2025-06-23T12:38:15Z</time>
					</trkpt>
					<trkpt lat="45.583540" lon="4.638320">
						<ele>417</ele>
						<time>2025-06-23T12:39:31Z</time>
					</trkpt>
					<trkpt lat="45.583790" lon="4.637970">
						<ele>421</ele>
						<time>2025-06-23T12:40:17Z</time>
					</trkpt>
					<trkpt lat="45.583810" lon="4.637580">
						<ele>424</ele>
						<time>2025-06-23T12:40:54Z</time>
					</trkpt>
					<trkpt lat="45.583810" lon="4.637110">
						<ele>428</ele>
						<time>2025-06-23T12:41:38Z</time>
					</trkpt>
					<trkpt lat="45.583940" lon="4.636730">
						<ele>433</ele>
						<time>2025-06-23T12:42:17Z</time>
					</trkpt>
					<trkpt lat="45.584110" lon="4.636340">
						<ele>438</ele>
						<time>2025-06-23T12:43:00Z</time>
					</trkpt>
					<trkpt lat="45.584150" lon="4.636380">
						<ele>438</ele>
						<time>2025-06-23T12:43:07Z</time>
					</trkpt>
					<trkpt lat="45.584110" lon="4.636340">
						<ele>438</ele>
						<time>2025-06-23T12:43:13Z</time>
					</trkpt>
					<trkpt lat="45.584300" lon="4.635920">
						<ele>444</ele>
						<time>2025-06-23T12:44:00Z</time>
					</trkpt>
					<trkpt lat="45.584390" lon="4.635810">
						<ele>446</ele>
						<time>2025-06-23T12:44:16Z</time>
					</trkpt>
					<trkpt lat="45.584440" lon="4.635620">
						<ele>448</ele>
						<time>2025-06-23T12:44:35Z</time>
					</trkpt>
					<trkpt lat="45.584460" lon="4.635030">
						<ele>453</ele>
						<time>2025-06-23T12:45:30Z</time>
					</trkpt>
					<trkpt lat="45.584450" lon="4.634790">
						<ele>455</ele>
						<time>2025-06-23T12:45:52Z</time>
					</trkpt>
					<trkpt lat="45.584320" lon="4.634360">
						<ele>460</ele>
						<time>2025-06-23T12:46:36Z</time>
					</trkpt>
					<trkpt lat="45.584240" lon="4.634090">
						<ele>463</ele>
						<time>2025-06-23T12:47:03Z</time>
					</trkpt>
					<trkpt lat="45.584220" lon="4.634030">
						<ele>463</ele>
						<time>2025-06-23T12:47:10Z</time>
					</trkpt>
					<trkpt lat="45.584130" lon="4.633570">
						<ele>464</ele>
						<time>2025-06-23T12:47:54Z</time>
					</trkpt>
					<trkpt lat="45.584130" lon="4.633380">
						<ele>464</ele>
						<time>2025-06-23T12:48:12Z</time>
					</trkpt>
					<trkpt lat="45.584200" lon="4.633200">
						<ele>464</ele>
						<time>2025-06-23T12:48:31Z</time>
					</trkpt>
					<trkpt lat="45.584210" lon="4.633160">
						<ele>464</ele>
						<time>2025-06-23T12:48:35Z</time>
					</trkpt>
					<trkpt lat="45.584010" lon="4.632870">
						<ele>464</ele>
						<time>2025-06-23T12:49:13Z</time>
					</trkpt>
					<trkpt lat="45.583660" lon="4.632480">
						<ele>466</ele>
						<time>2025-06-23T12:50:12Z</time>
					</trkpt>
					<trkpt lat="45.583470" lon="4.632380">
						<ele>467</ele>
						<time>2025-06-23T12:50:39Z</time>
					</trkpt>
					<trkpt lat="45.583330" lon="4.632320">
						<ele>468</ele>
						<time>2025-06-23T12:50:59Z</time>
					</trkpt>
					<trkpt lat="45.582960" lon="4.632120">
						<ele>469</ele>
						<time>2025-06-23T12:51:52Z</time>
					</trkpt>
					<trkpt lat="45.582820" lon="4.632040">
						<ele>469</ele>
						<time>2025-06-23T12:52:12Z</time>
					</trkpt>
					<trkpt lat="45.582700" lon="4.631970">
						<ele>469</ele>
						<time>2025-06-23T12:52:29Z</time>
					</trkpt>
					<trkpt lat="45.582590" lon="4.631870">
						<ele>470</ele>
						<time>2025-06-23T12:52:46Z</time>
					</trkpt>
					<trkpt lat="45.582540" lon="4.631810">
						<ele>471</ele>
						<time>2025-06-23T12:52:55Z</time>
					</trkpt>
					<trkpt lat="45.582360" lon="4.631630">
						<ele>471</ele>
						<time>2025-06-23T12:53:24Z</time>
					</trkpt>
					<trkpt lat="45.582270" lon="4.631530">
						<ele>471</ele>
						<time>2025-06-23T12:53:40Z</time>
					</trkpt>
					<trkpt lat="45.582230" lon="4.631500">
						<ele>470</ele>
						<time>2025-06-23T12:53:46Z</time>
					</trkpt>
					<trkpt lat="45.582130" lon="4.631400">
						<ele>470</ele>
						<time>2025-06-23T12:54:02Z</time>
					</trkpt>
					<trkpt lat="45.581980" lon="4.631310">
						<ele>470</ele>
						<time>2025-06-23T12:54:24Z</time>
					</trkpt>
					<trkpt lat="45.582190" lon="4.630810">
						<ele>475</ele>
						<time>2025-06-23T12:55:18Z</time>
					</trkpt>
					<trkpt lat="45.582260" lon="4.630540">
						<ele>477</ele>
						<time>2025-06-23T12:55:45Z</time>
					</trkpt>
					</trkseg>
				</trk>
			</gpx>